Time;durP1;ratioP1;P1;durP2;ratioP2;P2;SDS_P1;SDS_P2;PMS_P1;PMS_P2;Temp;Humidity;BMP_temperature;BMP_pressure;BME280_temperature;BME280_humidity;BME280_pressure;Samples;Min_cycle;Max_cycle;Signal;HPM_P1;HPM_P2
2023/12/17 00:01:32;;;;;;;;;;;;;;;-144.99;100.00;52639.69;5056593;28;20016;-75
2023/12/17 00:03:58;;;;;;;;;;;;;;;-144.99;100.00;52647.84;5049090;28;19936;-74
2023/12/17 00:06:26;;;;;;;;;;;;;;;-144.99;100.00;52660.09;5050287;28;19994;-74
2023/12/17 00:08:53;;;;;;;;;;;;;;;-144.99;100.00;52615.25;5049834;28;21243;-74
2023/12/17 00:11:19;;;;;;;;;;;;;;;-144.99;100.00;52660.09;5048405;28;19928;-74
2023/12/17 00:13:46;;;;;;;;;;;;;;;-144.99;100.00;52613.19;5048821;28;20273;-74
2023/12/17 00:16:12;;;;;;;;;;;;;;;-144.99;100.00;52651.94;5046920;28;20441;-74
2023/12/17 00:18:39;;;;;;;;;;;;;;;-144.99;100.00;52656.00;5047785;28;20039;-72
2023/12/17 00:21:05;;;;;;;;;;;;;;;-144.99;100.00;52631.53;5049841;28;20045;-67
2023/12/17 00:23:33;;;;;;;;;;;;;;;-144.99;100.00;52664.16;5047811;28;20365;-71
2023/12/17 00:26:00;;;;;;;;;;;;;;;-144.99;100.00;52639.69;5045632;28;20023;-70
2023/12/17 00:28:26;;;;;;;;;;;;;;;-144.99;100.00;52643.78;5044785;28;19976;-71
2023/12/17 00:30:53;;;;;;;;;;;;;;;-144.99;100.00;52651.94;5048345;28;20022;-71
2023/12/17 00:33:19;;;;;;;;;;;;;;;-144.99;100.00;52645.81;5048968;28;19956;-70
2023/12/17 00:35:46;;;;;;;;;;;;;;;-144.99;100.00;52619.31;5047233;28;19952;-71
2023/12/17 00:38:12;;;;;;;;;;;;;;;-144.99;100.00;52627.47;5048671;28;20357;-72
2023/12/17 00:40:40;;;;;;;;;;;;;;;-144.99;100.00;52629.50;5048595;28;19956;-72
2023/12/17 00:43:06;;;;;;;;;;;;;;;-144.99;100.00;52619.31;5046177;28;19929;-72
2023/12/17 00:45:33;;;;;;;;;;;;;;;-144.99;100.00;52627.47;5045468;28;20008;-69
2023/12/17 00:47:59;;;;;;;;;;;;;;;-144.99;100.00;52627.47;5048340;28;20030;-68
2023/12/17 00:50:26;;;;;;;;;;;;;;;-144.99;100.00;52662.13;5049237;28;19982;-68
2023/12/17 00:52:52;;;;;;;;;;;;;;;-144.99;100.00;52651.94;5047267;28;19985;-69
2023/12/17 00:55:19;;;;;;;;;;;;;;;-144.99;100.00;52639.69;5047905;28;19991;-68
2023/12/17 00:57:47;;;;;;;;;;;;;;;-144.99;100.00;52639.69;5046505;28;20425;-68
2023/12/17 01:00:14;;;;;;;;;;;;;;;-144.99;100.00;52600.97;5046407;28;19928;-68
2023/12/17 01:02:40;;;;;;;;;;;;;;;-144.99;100.00;52676.38;5045633;28;19936;-68
2023/12/17 01:05:07;;;;;;;;;;;;;;;-144.99;100.00;52592.81;5049500;28;19936;-68
2023/12/17 01:07:34;;;;;;;;;;;;;;;-144.99;100.00;52641.72;5052022;28;20460;-68
2023/12/17 01:10:00;;;;;;;;;;;;;;;-144.99;100.00;52619.31;5050128;28;19964;-70
2023/12/17 01:12:27;;;;;;;;;;;;;;;-144.99;100.00;52619.31;5048552;28;19976;-68
2023/12/17 01:14:55;;;;;;;;;;;;;;;-144.99;100.00;52627.47;5046286;28;20255;-68
2023/12/17 01:17:21;;;;;;;;;;;;;;;-144.99;100.00;52664.16;5047536;28;19929;-67
2023/12/17 01:19:48;;;;;;;;;;;;;;;-144.99;100.00;52656.00;5047925;28;20588;-68
2023/12/17 01:22:14;;;;;;;;;;;;;;;-144.99;100.00;52664.16;5045080;28;19987;-68
2023/12/17 01:24:41;;;;;;;;;;;;;;;-144.99;100.00;52621.34;5047615;28;19991;-68
2023/12/17 01:27:07;;;;;;;;;;;;;;;-144.99;100.00;52627.47;5043870;28;20438;-70
2023/12/17 01:29:34;;;;;;;;;;;;;;;-144.99;100.00;52688.63;5047678;28;20411;-70
2023/12/17 01:32:02;;;;;;;;;;;;;;;-144.99;100.00;52615.25;5046004;28;19990;-70
2023/12/17 01:34:28;;;;;;;;;;;;;;;-144.99;100.00;52641.72;5053131;28;19971;-77
2023/12/17 01:36:55;;;;;;;;;;;;;;;-144.99;100.00;52653.97;5046428;28;19929;-76
2023/12/17 01:39:22;;;;;;;;;;;;;;;-144.99;100.00;52656.00;5047087;28;20163;-76
2023/12/17 01:41:48;;;;;;;;;;;;;;;-144.99;100.00;52631.53;5046144;28;19928;-76
2023/12/17 01:44:15;;;;;;;;;;;;;;;-144.99;100.00;52621.34;5051105;28;20325;-76
2023/12/17 01:46:42;;;;;;;;;;;;;;;-144.99;100.00;52633.59;5058655;28;19933;-76
2023/12/17 01:49:09;;;;;;;;;;;;;;;-144.99;100.00;52651.94;5060178;28;19932;-73
2023/12/17 01:51:37;;;;;;;;;;;;;;;-144.99;100.00;52635.63;5063511;28;19975;-74
2023/12/17 01:54:03;;;;;;;;;;;;;;;-144.99;100.00;52656.00;5061563;28;19925;-76
2023/12/17 01:56:30;;;;;;;;;;;;;;;-144.99;100.00;52651.94;5065468;28;19955;-76
2023/12/17 01:58:57;;;;;;;;;;;;;;;-144.99;100.00;52627.47;5062045;28;19951;-76
2023/12/17 02:01:24;;;;;;;;;;;;;;;-144.99;100.00;52586.69;5049917;28;19937;-76
2023/12/17 02:03:50;;;;;;;;;;;;;;;-144.99;100.00;52627.47;5047793;28;19986;-76
2023/12/17 02:06:18;;;;;;;;;;;;;;;-144.99;100.00;52656.00;5045797;28;19932;-73
2023/12/17 02:08:45;;;;;;;;;;;;;;;-144.99;100.00;52615.25;5048261;28;19928;-73
2023/12/17 02:11:11;;;;;;;;;;;;;;;-144.99;100.00;52629.50;5048331;28;20341;-73
2023/12/17 02:13:37;;;;;;;;;;;;;;;-144.99;100.00;52623.38;5045897;28;19997;-73
2023/12/17 02:18:32;;;;;;;;;;;;;;;-144.99;100.00;52678.44;5044971;28;19947;-67
2023/12/17 02:20:59;;;;;;;;;;;;;;;-144.99;100.00;52621.34;5049045;28;19967;-70
2023/12/17 02:23:27;;;;;;;;;;;;;;;-144.99;100.00;52631.53;5047241;28;19928;-69
2023/12/17 02:25:54;;;;;;;;;;;;;;;-144.99;100.00;52635.63;5055740;28;20421;-69
2023/12/17 02:28:20;;;;;;;;;;;;;;;-144.99;100.00;52619.31;5037115;28;20011;-66
2023/12/17 02:30:47;;;;;;;;;;;;;;;-144.99;100.00;52607.09;5046457;28;19968;-65
2023/12/17 02:33:13;;;;;;;;;;;;;;;-144.99;100.00;52651.94;5055478;28;20011;-65
2023/12/17 02:35:40;;;;;;;;;;;;;;;-144.99;100.00;52664.16;5052170;28;20203;-63
2023/12/17 02:38:06;;;;;;;;;;;;;;;-144.99;100.00;52635.63;5048077;28;20204;-64
2023/12/17 02:40:34;;;;;;;;;;;;;;;-144.99;100.00;52615.25;5049440;28;20011;-70
2023/12/17 02:43:00;;;;;;;;;;;;;;;-144.99;100.00;52639.69;5050790;28;19928;-67
2023/12/17 02:45:27;;;;;;;;;;;;;;;-144.99;100.00;52656.00;5051294;28;20466;-71
2023/12/17 02:47:53;;;;;;;;;;;;;;;-144.99;100.00;52680.47;5044583;28;20605;-69
2023/12/17 02:50:20;;;;;;;;;;;;;;;-144.99;100.00;52613.19;5044470;28;20098;-69
2023/12/17 02:52:46;;;;;;;;;;;;;;;-144.99;100.00;52649.88;5045185;28;20039;-69
2023/12/17 02:55:13;;;;;;;;;;;;;;;-144.99;100.00;52656.00;5044487;28;19978;-69
2023/12/17 02:57:41;;;;;;;;;;;;;;;-144.99;100.00;52639.69;5042462;28;20066;-67
2023/12/17 03:00:08;;;;;;;;;;;;;;;-144.99;100.00;52594.84;5045461;28;20320;-68
2023/12/17 03:02:35;;;;;;;;;;;;;;;-144.99;100.00;52627.47;5044996;28;19931;-68
2023/12/17 03:05:01;;;;;;;;;;;;;;;-144.99;100.00;52668.22;5049605;28;20004;-69
2023/12/17 03:07:30;;;;;;;;;;;;;;;-144.99;100.00;52619.31;5048297;28;20357;-69
2023/12/17 03:09:56;;;;;;;;;;;;;;;-144.99;100.00;52611.16;5048322;28;20038;-68
2023/12/17 03:12:23;;;;;;;;;;;;;;;-144.99;100.00;52668.22;5044033;28;19979;-68
2023/12/17 03:14:51;;;;;;;;;;;;;;;-144.99;100.00;52635.63;5055097;28;19924;-69
2023/12/17 03:17:17;;;;;;;;;;;;;;;-144.99;100.00;52643.78;5063295;28;20527;-69
2023/12/17 03:19:44;;;;;;;;;;;;;;;-144.99;100.00;52651.94;5047778;28;20030;-68
2023/12/17 03:22:10;;;;;;;;;;;;;;;-144.99;100.00;52617.28;5052478;28;20437;-68
2023/12/17 03:24:37;;;;;;;;;;;;;;;-144.99;100.00;52662.13;4697425;28;10000163;-69
2023/12/17 03:27:03;;;;;;;;;;;;;;;-144.99;100.00;52653.97;5044918;28;19929;-68
2023/12/17 03:29:30;;;;;;;;;;;;;;;-144.99;100.00;52660.09;5042250;28;20056;-69
2023/12/17 03:31:59;;;;;;;;;;;;;;;-144.99;100.00;52623.38;5044357;28;20012;-68
2023/12/17 03:34:25;;;;;;;;;;;;;;;-144.99;100.00;52645.81;5049298;28;19925;-69
2023/12/17 03:36:52;;;;;;;;;;;;;;;-144.99;100.00;52596.88;5046054;28;20002;-67
2023/12/17 03:39:19;;;;;;;;;;;;;;;-144.99;100.00;52627.47;5046801;28;19964;-69
2023/12/17 03:41:45;;;;;;;;;;;;;;;-144.99;100.00;52633.59;5050046;28;19931;-69
2023/12/17 03:44:12;;;;;;;;;;;;;;;-144.99;100.00;52660.09;5060079;28;19925;-68
2023/12/17 03:46:38;;;;;;;;;;;;;;;-144.99;100.00;52611.16;5059074;28;20015;-68
2023/12/17 03:49:06;;;;;;;;;;;;;;;-144.99;100.00;52668.22;5056861;28;19933;-66
2023/12/17 03:51:33;;;;;;;;;;;;;;;-144.99;100.00;52680.47;5054262;28;19960;-67
2023/12/17 03:54:00;;;;;;;;;;;;;;;-144.99;100.00;52627.47;5051447;28;19924;-67
2023/12/17 03:56:26;;;;;;;;;;;;;;;-144.99;100.00;52611.16;5056306;28;20115;-67
2023/12/17 03:58:53;;;;;;;;;;;;;;;-144.99;100.00;52664.16;5062201;28;19924;-66
2023/12/17 04:01:19;;;;;;;;;;;;;;;-144.99;100.00;52631.53;5055786;28;19967;-66
2023/12/17 04:03:46;;;;;;;;;;;;;;;-144.99;100.00;52619.31;5059824;28;19925;-72
2023/12/17 04:06:14;;;;;;;;;;;;;;;-144.99;100.00;52664.16;5053916;28;19947;-73
2023/12/17 04:08:40;;;;;;;;;;;;;;;-144.99;100.00;52668.22;5057205;28;20341;-72
2023/12/17 04:11:07;;;;;;;;;;;;;;;-144.99;100.00;52619.31;5053498;28;19979;-72
2023/12/17 04:13:33;;;;;;;;;;;;;;;-144.99;100.00;52686.59;5049583;28;19932;-73
2023/12/17 04:16:00;;;;;;;;;;;;;;;-144.99;100.00;52658.03;5052907;28;20076;-73
2023/12/17 04:18:26;;;;;;;;;;;;;;;-144.99;100.00;52627.47;5049461;28;19982;-71
2023/12/17 04:20:52;;;;;;;;;;;;;;;-144.99;100.00;52639.69;5063488;28;20338;-71
2023/12/17 04:23:20;;;;;;;;;;;;;;;-144.99;100.00;52603.00;5060619;28;19975;-70
2023/12/17 04:25:47;;;;;;;;;;;;;;;-144.99;100.00;52603.00;5058741;28;20010;-69
2023/12/17 04:28:13;;;;;;;;;;;;;;;-144.99;100.00;52629.50;5062757;28;20047;-68
2023/12/17 04:30:40;;;;;;;;;;;;;;;-144.99;100.00;52664.16;5051537;28;19961;-67
2023/12/17 04:33:06;;;;;;;;;;;;;;;-144.99;100.00;52635.63;5046580;28;19928;-67
2023/12/17 04:35:33;;;;;;;;;;;;;;;-144.99;100.00;52627.47;5049456;28;20010;-65
2023/12/17 04:37:59;;;;;;;;;;;;;;;-144.99;100.00;52660.09;5054380;28;19972;-65
2023/12/17 04:40:27;;;;;;;;;;;;;;;-144.99;100.00;52651.94;5051008;28;20014;-65
2023/12/17 04:42:56;;;;;;;;;;;;;;;-144.99;100.00;52627.47;5048392;28;20025;-66
2023/12/17 04:45:22;;;;;;;;;;;;;;;-144.99;100.00;52607.09;5049601;28;19933;-65
2023/12/17 04:47:49;;;;;;;;;;;;;;;-144.99;100.00;52635.63;5048586;28;20349;-65
2023/12/17 04:50:15;;;;;;;;;;;;;;;-144.99;100.00;52627.47;5047510;28;19924;-66
2023/12/17 04:52:42;;;;;;;;;;;;;;;-144.99;100.00;52627.47;5050990;28;20031;-67
2023/12/17 04:55:08;;;;;;;;;;;;;;;-144.99;100.00;52668.22;5048377;28;20025;-66
2023/12/17 04:57:36;;;;;;;;;;;;;;;-144.99;100.00;52656.00;5047743;28;19925;-66
2023/12/17 05:00:05;;;;;;;;;;;;;;;-144.99;100.00;52651.94;5047733;28;20026;-66
2023/12/17 05:02:32;;;;;;;;;;;;;;;-144.99;100.00;52615.25;5048624;28;20203;-66
2023/12/17 05:04:58;;;;;;;;;;;;;;;-144.99;100.00;52658.03;5046383;28;19925;-65
2023/12/17 05:07:24;;;;;;;;;;;;;;;-144.99;100.00;52619.31;5049759;28;20000;-66
2023/12/17 05:09:52;;;;;;;;;;;;;;;-144.99;100.00;52637.66;5048591;28;19968;-64
2023/12/17 05:12:19;;;;;;;;;;;;;;;-144.99;100.00;52635.63;5057086;28;19940;-63
2023/12/17 05:14:51;;;;;;;;;;;;;;;-144.99;100.00;52639.69;5050025;28;20162;-65
2023/12/17 05:17:17;;;;;;;;;;;;;;;-144.99;100.00;52643.78;5046653;28;20020;-64
2023/12/17 05:19:44;;;;;;;;;;;;;;;-144.99;100.00;52656.00;5048248;28;19978;-65
2023/12/17 05:22:10;;;;;;;;;;;;;;;-144.99;100.00;52702.88;5053219;28;19975;-64
2023/12/17 05:24:37;;;;;;;;;;;;;;;-144.99;100.00;52668.22;5050822;28;19964;-67
2023/12/17 05:27:04;;;;;;;;;;;;;;;-144.99;100.00;52664.16;5048568;28;19972;-66
2023/12/17 05:29:30;;;;;;;;;;;;;;;-144.99;100.00;52649.88;5048716;28;20019;-64
2023/12/17 05:31:58;;;;;;;;;;;;;;;-144.99;100.00;52660.09;5049018;28;20007;-64
2023/12/17 05:34:26;;;;;;;;;;;;;;;-144.99;100.00;52605.03;5053529;28;19925;-63
2023/12/17 05:36:53;;;;;;;;;;;;;;;-144.99;100.00;52668.22;5044248;28;20055;-63
2023/12/17 05:39:19;;;;;;;;;;;;;;;-144.99;100.00;52700.84;5046312;28;20052;-63
2023/12/17 05:41:46;;;;;;;;;;;;;;;-144.99;100.00;52660.09;5047648;28;19929;-64
2023/12/17 05:44:12;;;;;;;;;;;;;;;-144.99;100.00;52647.84;5048695;28;20007;-63
2023/12/17 05:46:38;;;;;;;;;;;;;;;-144.99;100.00;52680.47;5047899;28;19971;-64
2023/12/17 05:49:06;;;;;;;;;;;;;;;-144.99;100.00;52639.69;5045440;28;20023;-64
2023/12/17 05:51:33;;;;;;;;;;;;;;;-144.99;100.00;52670.28;5048125;28;20016;-64
2023/12/17 05:54:00;;;;;;;;;;;;;;;-144.99;100.00;52649.88;5048269;28;20347;-68
2023/12/17 05:56:26;;;;;;;;;;;;;;;-144.99;100.00;52688.63;5047454;28;20362;-70
2023/12/17 05:58:53;;;;;;;;;;;;;;;-144.99;100.00;52664.16;5055335;28;19960;-70
2023/12/17 06:01:19;;;;;;;;;;;;;;;-144.99;100.00;52623.38;5064435;28;19924;-70
2023/12/17 06:03:45;;;;;;;;;;;;;;;-144.99;100.00;52668.22;5062365;28;20317;-67
2023/12/17 06:06:15;;;;;;;;;;;;;;;-144.99;100.00;52637.66;5049382;28;20383;-68
2023/12/17 06:08:41;;;;;;;;;;;;;;;-144.99;100.00;52647.84;5047412;28;19932;-67
2023/12/17 06:11:08;;;;;;;;;;;;;;;-144.99;100.00;52651.94;5044935;28;20012;-67
2023/12/17 06:13:35;;;;;;;;;;;;;;;-144.99;100.00;52635.63;5047980;28;19964;-68
2023/12/17 06:16:03;;;;;;;;;;;;;;;-144.99;100.00;52643.78;5047152;28;20408;-68
2023/12/17 06:18:29;;;;;;;;;;;;;;;-144.99;100.00;52645.81;5044230;28;19932;-70
2023/12/17 06:20:56;;;;;;;;;;;;;;;-144.99;100.00;52651.94;5049642;28;19924;-68
2023/12/17 06:23:24;;;;;;;;;;;;;;;-144.99;100.00;52623.38;5051544;28;20374;-67
2023/12/17 06:25:50;;;;;;;;;;;;;;;-144.99;100.00;52651.94;5050674;28;19929;-70
2023/12/17 06:28:17;;;;;;;;;;;;;;;-144.99;100.00;52656.00;5061204;28;20003;-68
2023/12/17 06:30:43;;;;;;;;;;;;;;;-144.99;100.00;52643.78;5058494;28;20020;-72
2023/12/17 06:33:09;;;;;;;;;;;;;;;-144.99;100.00;52676.38;5051644;28;19929;-71
2023/12/17 06:35:37;;;;;;;;;;;;;;;-144.99;100.00;52709.00;5052187;28;19925;-72
2023/12/17 06:38:04;;;;;;;;;;;;;;;-144.99;100.00;52625.44;5033661;28;19931;-70
2023/12/17 06:40:32;;;;;;;;;;;;;;;-144.99;100.00;52615.25;5052970;28;19928;-70
2023/12/17 06:42:59;;;;;;;;;;;;;;;-144.99;100.00;52658.03;5062267;28;19940;-70
2023/12/17 06:45:25;;;;;;;;;;;;;;;-144.99;100.00;52631.53;5073091;28;19925;-70
2023/12/17 06:47:52;;;;;;;;;;;;;;;-144.99;100.00;52603.00;5047825;28;19976;-69
2023/12/17 06:50:19;;;;;;;;;;;;;;;-144.99;100.00;52651.94;5054694;28;19936;-69
2023/12/17 06:52:45;;;;;;;;;;;;;;;-144.99;100.00;52660.09;5047502;28;20342;-69
2023/12/17 06:55:12;;;;;;;;;;;;;;;-144.99;100.00;52668.22;5066319;28;19978;-69
2023/12/17 06:57:46;;;;;;;;;;;;;;;-144.99;100.00;52631.53;5051429;28;19976;-69
2023/12/17 07:00:13;;;;;;;;;;;;;;;-144.99;100.00;52653.97;5055307;28;19978;-69
2023/12/17 07:02:40;;;;;;;;;;;;;;;-144.99;100.00;52627.47;5057481;28;20391;-68
2023/12/17 07:05:08;;;;;;;;;;;;;;;-144.99;100.00;52627.47;5048396;28;20593;-68
2023/12/17 07:07:35;;;;;;;;;;;;;;;-144.99;100.00;52619.31;5047991;28;20015;-67
2023/12/17 07:10:01;;;;;;;;;;;;;;;-144.99;100.00;52609.13;5047551;28;20110;-67
2023/12/17 07:12:28;;;;;;;;;;;;;;;-144.99;100.00;52592.81;5045100;28;20012;-67
2023/12/17 07:14:57;;;;;;;;;;;;;;;-144.99;100.00;52649.88;5049990;28;20857;-67
2023/12/17 07:17:23;;;;;;;;;;;;;;;-144.99;100.00;52656.00;5053138;28;19936;-67
2023/12/17 07:19:50;;;;;;;;;;;;;;;-144.99;100.00;52651.94;5061913;28;20025;-67
2023/12/17 07:22:22;;;;;;;;;;;;;;;-144.99;100.00;52607.09;5065745;28;20006;-63
2023/12/17 07:24:48;;;;;;;;;;;;;;;-144.99;100.00;52651.94;5062374;28;19929;-63
2023/12/17 07:27:15;;;;;;;;;;;;;;;-144.99;100.00;52651.94;5051359;28;19978;-62
2023/12/17 07:29:41;;;;;;;;;;;;;;;-144.99;100.00;52643.78;5051208;28;19931;-64
2023/12/17 07:32:09;;;;;;;;;;;;;;;-144.99;100.00;52643.78;5053289;28;19968;-63
2023/12/17 07:34:36;;;;;;;;;;;;;;;-144.99;100.00;52643.78;5053542;28;19956;-64
2023/12/17 07:37:03;;;;;;;;;;;;;;;-144.99;100.00;52639.69;5044582;28;19924;-64
2023/12/17 07:39:29;;;;;;;;;;;;;;;-144.99;100.00;52635.63;5051399;28;19986;-65
2023/12/17 07:41:56;;;;;;;;;;;;;;;-144.99;100.00;52639.69;5050932;28;20020;-64
2023/12/17 07:44:22;;;;;;;;;;;;;;;-144.99;100.00;52603.00;5050974;28;20402;-64
2023/12/17 07:46:49;;;;;;;;;;;;;;;-144.99;100.00;52645.81;5052295;28;19975;-64
2023/12/17 07:49:17;;;;;;;;;;;;;;;-144.99;100.00;52639.69;5058440;28;19929;-70
2023/12/17 07:51:44;;;;;;;;;;;;;;;-144.99;100.00;52627.47;5061187;28;19970;-71
2023/12/17 07:54:11;;;;;;;;;;;;;;;-144.99;100.00;52631.53;5050319;28;19936;-71
2023/12/17 07:56:37;;;;;;;;;;;;;;;-144.99;100.00;52649.88;5057924;28;20256;-71
2023/12/17 07:59:04;;;;;;;;;;;;;;;-144.99;100.00;52672.31;5062935;28;19931;-71
2023/12/17 08:01:31;;;;;;;;;;;;;;;-144.99;100.00;52637.66;5058633;28;19925;-71
2023/12/17 08:03:57;;;;;;;;;;;;;;;-144.99;100.00;52603.00;5051393;28;20188;-71
2023/12/17 08:06:25;;;;;;;;;;;;;;;-144.99;100.00;52656.00;5059589;28;19979;-67
2023/12/17 08:08:52;;;;;;;;;;;;;;;-144.99;100.00;52662.13;5076667;28;19925;-73
2023/12/17 08:11:18;;;;;;;;;;;;;;;-144.99;100.00;52623.38;5057610;28;20019;-71
2023/12/17 08:13:45;;;;;;;;;;;;;;;-144.99;100.00;52643.78;5069747;28;20344;-72
2023/12/17 08:16:11;;;;;;;;;;;;;;;-144.99;100.00;52651.94;5054562;28;19924;-71
2023/12/17 08:18:38;;;;;;;;;;;;;;;-144.99;100.00;52656.00;5054215;28;20077;-71
2023/12/17 08:21:05;;;;;;;;;;;;;;;-144.99;100.00;52651.94;5055165;28;20024;-71
2023/12/17 08:23:33;;;;;;;;;;;;;;;-144.99;100.00;52639.69;5070744;28;19983;-72
2023/12/17 08:25:59;;;;;;;;;;;;;;;-144.99;100.00;52668.22;5060148;28;20050;-70
2023/12/17 08:28:26;;;;;;;;;;;;;;;-144.99;100.00;52645.81;5055466;28;20268;-71
2023/12/17 08:30:52;;;;;;;;;;;;;;;-144.99;100.00;52672.31;5051122;28;19929;-72
2023/12/17 08:33:19;;;;;;;;;;;;;;;-144.99;100.00;52647.84;5057913;28;19991;-71
2023/12/17 08:35:46;;;;;;;;;;;;;;;-144.99;100.00;52651.94;5050513;28;19979;-72
2023/12/17 08:38:13;;;;;;;;;;;;;;;-144.99;100.00;52625.44;5056220;28;19924;-71
2023/12/17 08:40:41;;;;;;;;;;;;;;;-144.99;100.00;52623.38;5056070;28;19928;-72
2023/12/17 08:43:09;;;;;;;;;;;;;;;-144.99;100.00;52651.94;5047380;28;19925;-72
2023/12/17 08:45:36;;;;;;;;;;;;;;;-144.99;100.00;52639.69;5062325;28;20019;-72
2023/12/17 08:48:03;;;;;;;;;;;;;;;-144.99;100.00;52643.78;5080425;28;19913;-73
2023/12/17 08:50:29;;;;;;;;;;;;;;;-144.99;100.00;52692.69;5065121;28;19949;-71
2023/12/17 08:52:56;;;;;;;;;;;;;;;-144.99;100.00;52660.09;5061969;28;19928;-72
2023/12/17 08:55:23;;;;;;;;;;;;;;;-144.99;100.00;52656.00;5070740;28;20055;-72
2023/12/17 08:57:51;;;;;;;;;;;;;;;-144.99;100.00;52635.63;5054548;28;19928;-71
2023/12/17 09:00:18;;;;;;;;;;;;;;;-144.99;100.00;52619.31;5049739;28;19960;-71
2023/12/17 09:02:44;;;;;;;;;;;;;;;-144.99;100.00;52619.31;5054883;28;19924;-72
2023/12/17 09:05:12;;;;;;;;;;;;;;;-144.99;100.00;52629.50;5056871;28;20066;-72
2023/12/17 09:07:39;;;;;;;;;;;;;;;-144.99;100.00;52651.94;5056545;28;19978;-71
2023/12/17 09:10:06;;;;;;;;;;;;;;;-144.99;100.00;52676.38;5055768;28;19979;-71
2023/12/17 09:12:32;;;;;;;;;;;;;;;-144.99;100.00;52674.34;5045786;28;19982;-72
2023/12/17 09:15:00;;;;;;;;;;;;;;;-144.99;100.00;52627.47;5056824;28;19932;-72
2023/12/17 09:17:27;;;;;;;;;;;;;;;-144.99;100.00;52623.38;5052533;28;19956;-71
2023/12/17 09:19:53;;;;;;;;;;;;;;;-144.99;100.00;52668.22;5049533;28;19994;-72
2023/12/17 09:22:20;;;;;;;;;;;;;;;-144.99;100.00;52656.00;5066311;28;20017;-71
2023/12/17 09:24:46;;;;;;;;;;;;;;;-144.99;100.00;52643.78;5063795;28;19964;-71
2023/12/17 09:27:12;;;;;;;;;;;;;;;-144.99;100.00;52627.47;5050786;28;19960;-72
2023/12/17 09:29:39;;;;;;;;;;;;;;;-144.99;100.00;52651.94;5081846;28;19920;-73
2023/12/17 09:32:08;;;;;;;;;;;;;;;-144.99;100.00;52656.00;5065932;28;19931;-70
2023/12/17 09:34:35;;;;;;;;;;;;;;;-144.99;100.00;52674.34;5057756;28;19931;-74
2023/12/17 09:37:01;;;;;;;;;;;;;;;-144.99;100.00;52676.38;5045911;28;20438;-71
2023/12/17 09:39:28;;;;;;;;;;;;;;;-144.99;100.00;52631.53;5061814;28;19967;-71
2023/12/17 09:41:54;;;;;;;;;;;;;;;-144.99;100.00;52656.00;5049066;28;19928;-66
2023/12/17 09:44:20;;;;;;;;;;;;;;;-144.99;100.00;52586.69;5046241;28;20586;-66
2023/12/17 09:46:47;;;;;;;;;;;;;;;-144.99;100.00;52603.00;5047423;28;20020;-67
2023/12/17 09:49:15;;;;;;;;;;;;;;;-144.99;100.00;52615.25;5048650;28;20023;-66
2023/12/17 09:51:43;;;;;;;;;;;;;;;-144.99;100.00;52607.09;5050197;28;20474;-69
2023/12/17 09:54:09;;;;;;;;;;;;;;;-144.99;100.00;52643.78;5050335;28;20310;-69
2023/12/17 09:56:35;;;;;;;;;;;;;;;-144.99;100.00;52643.78;5057605;28;19960;-70
2023/12/17 09:59:01;;;;;;;;;;;;;;;-144.99;100.00;52668.22;5069649;28;20381;-70
2023/12/17 10:01:28;;;;;;;;;;;;;;;-144.99;100.00;52656.00;5043706;28;19963;-71
2023/12/17 10:03:54;;;;;;;;;;;;;;;-144.99;100.00;52607.09;5053383;28;19986;-69
2023/12/17 10:06:22;;;;;;;;;;;;;;;-144.99;100.00;52664.16;5058855;28;19992;-69
2023/12/17 10:08:48;;;;;;;;;;;;;;;-144.99;100.00;52625.44;5049766;28;20024;-68
2023/12/17 10:11:16;;;;;;;;;;;;;;;-144.99;100.00;52651.94;5060444;28;19990;-69
2023/12/17 10:13:43;;;;;;;;;;;;;;;-144.99;100.00;52627.47;5056860;28;19964;-68
2023/12/17 10:16:09;;;;;;;;;;;;;;;-144.99;100.00;52635.63;5047865;28;20026;-68
2023/12/17 10:18:36;;;;;;;;;;;;;;;-144.99;100.00;52611.16;5057817;28;20019;-69
2023/12/17 10:21:04;;;;;;;;;;;;;;;-144.99;100.00;52656.00;5052712;28;19925;-68
2023/12/17 10:23:45;;;;;;;;;;;;;;;-144.99;100.00;52668.22;5054486;28;19940;-68
2023/12/17 10:26:11;;;;;;;;;;;;;;;-144.99;100.00;52664.16;5045055;28;20284;-69
2023/12/17 10:28:40;;;;;;;;;;;;;;;-144.99;100.00;52635.63;5048297;28;20050;-69
2023/12/17 10:31:07;;;;;;;;;;;;;;;-144.99;100.00;52641.72;5055841;28;19952;-68
2023/12/17 10:33:36;;;;;;;;;;;;;;;-144.99;100.00;52598.94;5064683;28;20066;-71
2023/12/17 10:36:04;;;;;;;;;;;;;;;-144.99;100.00;52629.50;5055448;28;20447;-69
2023/12/17 10:38:31;;;;;;;;;;;;;;;-144.99;100.00;52619.31;5047109;28;19993;-69
2023/12/17 10:40:59;;;;;;;;;;;;;;;-144.99;100.00;52639.69;5059977;28;20242;-71
2023/12/17 10:43:28;;;;;;;;;;;;;;;-144.99;100.00;52631.53;5052763;28;20209;-68
2023/12/17 10:45:55;;;;;;;;;;;;;;;-144.99;100.00;52625.44;5046513;28;20015;-69
2023/12/17 10:48:22;;;;;;;;;;;;;;;-144.99;100.00;52607.09;5067509;28;20007;-68
2023/12/17 10:50:49;;;;;;;;;;;;;;;-144.99;100.00;52643.78;5057468;28;20025;-69
2023/12/17 10:53:16;;;;;;;;;;;;;;;-144.99;100.00;52623.38;5062473;28;19925;-70
2023/12/17 10:55:42;;;;;;;;;;;;;;;-144.99;100.00;52611.16;5042673;28;19925;-69
2023/12/17 10:58:14;;;;;;;;;;;;;;;-144.99;100.00;52643.78;5048657;28;19967;-69
2023/12/17 11:00:41;;;;;;;;;;;;;;;-144.99;100.00;52631.53;5049045;28;20367;-68
2023/12/17 11:03:09;;;;;;;;;;;;;;;-144.99;100.00;52603.00;5045832;28;19975;-68
2023/12/17 11:05:36;;;;;;;;;;;;;;;-144.99;100.00;52607.09;5052980;28;20008;-69
2023/12/17 11:08:03;;;;;;;;;;;;;;;-144.99;100.00;52615.25;5062150;28;20442;-69
2023/12/17 11:10:30;;;;;;;;;;;;;;;-144.99;100.00;52592.81;5053664;28;19936;-68
2023/12/17 11:12:56;;;;;;;;;;;;;;;-144.99;100.00;52611.16;5059749;28;20183;-68
2023/12/17 11:15:25;;;;;;;;;;;;;;;-144.99;100.00;52607.09;5053876;28;20023;-71
2023/12/17 11:17:55;;;;;;;;;;;;;;;-144.99;100.00;52603.00;5061805;28;19932;-68
2023/12/17 11:20:22;;;;;;;;;;;;;;;-144.99;100.00;52605.03;5052052;28;20383;-69
2023/12/17 11:22:48;;;;;;;;;;;;;;;-144.99;100.00;52584.66;5048124;28;20376;-70
2023/12/17 11:25:15;;;;;;;;;;;;;;;-144.99;100.00;52558.16;5061185;28;20015;-70
2023/12/17 11:27:42;;;;;;;;;;;;;;;-144.99;99.02;52562.25;5054868;28;19978;-69
2023/12/17 11:30:23;;;;;;;;;;;;;;;-144.99;97.21;52570.38;5064430;28;20358;-68
2023/12/17 11:32:51;;;;;;;;;;;;;;;-144.99;97.04;52582.63;5055601;28;19996;-69
2023/12/17 11:35:19;;;;;;;;;;;;;;;-144.99;95.81;52590.78;5050083;28;19979;-68
2023/12/17 11:37:45;;;;;;;;;;;;;;;-144.99;96.01;52562.25;5042581;28;19925;-69
2023/12/17 11:40:12;;;;;;;;;;;;;;;-144.99;95.94;52578.53;5049681;28;19991;-69
2023/12/17 11:42:40;;;;;;;;;;;;;;;-144.99;97.24;52554.09;5055027;28;19929;-68
2023/12/17 11:45:07;;;;;;;;;;;;;;;-144.99;95.52;52572.44;5058003;28;19932;-68
2023/12/17 11:47:34;;;;;;;;;;;;;;;-144.99;94.92;52586.69;5056954;28;20035;-69
2023/12/17 11:50:02;;;;;;;;;;;;;;;-144.99;94.47;52545.94;5064106;28;19932;-69
2023/12/17 11:52:29;;;;;;;;;;;;;;;-144.99;92.84;52545.94;5047504;28;20034;-69
2023/12/17 11:54:58;;;;;;;;;;;;;;;-144.99;93.28;52521.47;5067265;28;19936;-70
2023/12/17 11:57:25;;;;;;;;;;;;;;;-144.99;93.22;52603.00;5060750;28;20457;-69
2023/12/17 11:59:51;;;;;;;;;;;;;;;-144.99;95.48;52568.34;5051237;28;19929;-70
2023/12/17 12:02:18;;;;;;;;;;;;;;;-144.99;97.70;52631.53;5058186;28;20427;-69
2023/12/17 12:04:45;;;;;;;;;;;;;;;-144.99;98.91;52603.00;5059956;28;19968;-70
2023/12/17 12:07:17;;;;;;;;;;;;;;;-144.99;100.00;52607.09;5071609;28;20046;-68
2023/12/17 12:09:43;;;;;;;;;;;;;;;-144.99;100.00;52582.63;5050622;28;19925;-68
2023/12/17 12:12:17;;;;;;;;;;;;;;;-144.99;100.00;52656.00;5051366;28;19979;-69
2023/12/17 12:14:44;;;;;;;;;;;;;;;-144.99;100.00;52662.13;5064498;28;20371;-68
2023/12/17 12:17:26;;;;;;;;;;;;;;;-144.99;100.00;52635.63;5061361;28;20441;-69
2023/12/17 12:19:52;;;;;;;;;;;;;;;-144.99;100.00;52588.75;5054805;28;20364;-69